sensor_id;sensor_type;location;lat;lon;timestamp;P1;durP1;ratioP1;P2;durP2;ratioP2
41293;SDS011;27037;52.010;4.446;2023-03-03T00:00:43;31.27;;;15.63;;
41293;SDS011;27037;52.010;4.446;2023-03-03T00:03:10;35.35;;;15.55;;
41293;SDS011;27037;52.010;4.446;2023-03-03T00:05:39;31.73;;;15.35;;
41293;SDS011;27037;52.010;4.446;2023-03-03T00:08:05;32.78;;;16.00;;
41293;SDS011;27037;52.010;4.446;2023-03-03T00:10:31;34.75;;;16.70;;
41293;SDS011;27037;52.010;4.446;2023-03-03T00:12:56;33.80;;;16.10;;
41293;SDS011;27037;52.010;4.446;2023-03-03T00:15:23;31.42;;;15.60;;
41293;SDS011;27037;52.010;4.446;2023-03-03T00:17:50;36.85;;;16.73;;
41293;SDS011;27037;52.010;4.446;2023-03-03T00:20:30;34.80;;;16.23;;
41293;SDS011;27037;52.010;4.446;2023-03-03T00:25:48;31.77;;;16.25;;
41293;SDS011;27037;52.010;4.446;2023-03-03T00:30:53;35.85;;;16.27;;
41293;SDS011;27037;52.010;4.446;2023-03-03T00:36:09;38.33;;;17.15;;
41293;SDS011;27037;52.010;4.446;2023-03-03T00:38:38;39.15;;;17.30;;
41293;SDS011;27037;52.010;4.446;2023-03-03T00:41:10;42.58;;;17.60;;
41293;SDS011;27037;52.010;4.446;2023-03-03T00:43:47;36.03;;;17.55;;
41293;SDS011;27037;52.010;4.446;2023-03-03T00:46:18;38.15;;;17.13;;
41293;SDS011;27037;52.010;4.446;2023-03-03T00:48:48;36.83;;;16.58;;
41293;SDS011;27037;52.010;4.446;2023-03-03T00:53:54;36.30;;;17.50;;
41293;SDS011;27037;52.010;4.446;2023-03-03T00:56:20;37.53;;;16.95;;
41293;SDS011;27037;52.010;4.446;2023-03-03T00:58:46;42.72;;;17.67;;
41293;SDS011;27037;52.010;4.446;2023-03-03T01:01:13;37.90;;;17.00;;
41293;SDS011;27037;52.010;4.446;2023-03-03T01:03:39;35.47;;;16.60;;
41293;SDS011;27037;52.010;4.446;2023-03-03T01:06:05;36.40;;;16.08;;
41293;SDS011;27037;52.010;4.446;2023-03-03T01:08:30;34.28;;;16.77;;
41293;SDS011;27037;52.010;4.446;2023-03-03T01:10:57;35.58;;;15.45;;
41293;SDS011;27037;52.010;4.446;2023-03-03T01:13:29;36.78;;;15.95;;
41293;SDS011;27037;52.010;4.446;2023-03-03T01:15:57;34.80;;;15.68;;
41293;SDS011;27037;52.010;4.446;2023-03-03T01:18:23;32.75;;;16.05;;
41293;SDS011;27037;52.010;4.446;2023-03-03T01:20:49;31.20;;;15.45;;
41293;SDS011;27037;52.010;4.446;2023-03-03T01:23:15;36.80;;;16.00;;
41293;SDS011;27037;52.010;4.446;2023-03-03T01:25:41;31.50;;;14.30;;
41293;SDS011;27037;52.010;4.446;2023-03-03T01:28:06;29.52;;;14.48;;
41293;SDS011;27037;52.010;4.446;2023-03-03T01:30:32;30.40;;;14.20;;
41293;SDS011;27037;52.010;4.446;2023-03-03T01:32:58;31.30;;;13.55;;
41293;SDS011;27037;52.010;4.446;2023-03-03T01:35:23;29.00;;;13.25;;
41293;SDS011;27037;52.010;4.446;2023-03-03T01:37:49;27.80;;;12.88;;
41293;SDS011;27037;52.010;4.446;2023-03-03T01:40:17;25.70;;;12.77;;
41293;SDS011;27037;52.010;4.446;2023-03-03T01:42:44;26.35;;;13.25;;
41293;SDS011;27037;52.010;4.446;2023-03-03T01:48:05;30.00;;;12.77;;
41293;SDS011;27037;52.010;4.446;2023-03-03T01:53:23;27.55;;;12.88;;
41293;SDS011;27037;52.010;4.446;2023-03-03T01:55:57;26.42;;;12.55;;
41293;SDS011;27037;52.010;4.446;2023-03-03T01:58:30;27.10;;;11.75;;
41293;SDS011;27037;52.010;4.446;2023-03-03T02:01:19;23.65;;;11.18;;
41293;SDS011;27037;52.010;4.446;2023-03-03T02:03:48;23.63;;;11.95;;
41293;SDS011;27037;52.010;4.446;2023-03-03T02:06:15;22.58;;;10.45;;
41293;SDS011;27037;52.010;4.446;2023-03-03T02:08:52;21.30;;;11.60;;
41293;SDS011;27037;52.010;4.446;2023-03-03T02:11:37;20.67;;;11.40;;
41293;SDS011;27037;52.010;4.446;2023-03-03T02:14:07;27.02;;;10.70;;
41293;SDS011;27037;52.010;4.446;2023-03-03T02:16:32;17.85;;;9.95;;
41293;SDS011;27037;52.010;4.446;2023-03-03T02:18:58;22.05;;;11.05;;
41293;SDS011;27037;52.010;4.446;2023-03-03T02:21:24;23.02;;;11.27;;
41293;SDS011;27037;52.010;4.446;2023-03-03T02:24:14;20.70;;;9.98;;
41293;SDS011;27037;52.010;4.446;2023-03-03T02:26:51;27.13;;;11.10;;
41293;SDS011;27037;52.010;4.446;2023-03-03T02:29:17;21.52;;;10.20;;
41293;SDS011;27037;52.010;4.446;2023-03-03T02:31:43;19.17;;;10.20;;
41293;SDS011;27037;52.010;4.446;2023-03-03T02:34:08;24.67;;;10.30;;
41293;SDS011;27037;52.010;4.446;2023-03-03T02:36:35;17.77;;;10.02;;
41293;SDS011;27037;52.010;4.446;2023-03-03T02:39:16;21.33;;;10.40;;
41293;SDS011;27037;52.010;4.446;2023-03-03T02:42:15;19.67;;;9.93;;
41293;SDS011;27037;52.010;4.446;2023-03-03T02:44:45;20.80;;;9.73;;
41293;SDS011;27037;52.010;4.446;2023-03-03T02:47:11;17.63;;;9.88;;
41293;SDS011;27037;52.010;4.446;2023-03-03T02:49:36;23.65;;;9.38;;
41293;SDS011;27037;52.010;4.446;2023-03-03T02:52:03;18.08;;;9.52;;
41293;SDS011;27037;52.010;4.446;2023-03-03T02:54:33;19.08;;;9.48;;
41293;SDS011;27037;52.010;4.446;2023-03-03T02:56:59;19.33;;;9.38;;
41293;SDS011;27037;52.010;4.446;2023-03-03T02:59:25;19.08;;;9.93;;
41293;SDS011;27037;52.010;4.446;2023-03-03T03:01:51;19.83;;;9.07;;
41293;SDS011;27037;52.010;4.446;2023-03-03T03:04:18;19.95;;;9.73;;
41293;SDS011;27037;52.010;4.446;2023-03-03T03:06:46;19.42;;;10.20;;
41293;SDS011;27037;52.010;4.446;2023-03-03T03:09:12;21.08;;;9.30;;
41293;SDS011;27037;52.010;4.446;2023-03-03T03:11:39;23.42;;;9.98;;
41293;SDS011;27037;52.010;4.446;2023-03-03T03:14:06;27.13;;;10.80;;
41293;SDS011;27037;52.010;4.446;2023-03-03T03:16:33;18.88;;;9.77;;
41293;SDS011;27037;52.010;4.446;2023-03-03T03:18:59;22.98;;;10.23;;
41293;SDS011;27037;52.010;4.446;2023-03-03T03:21:26;22.23;;;10.15;;
41293;SDS011;27037;52.010;4.446;2023-03-03T03:23:51;19.15;;;9.85;;
41293;SDS011;27037;52.010;4.446;2023-03-03T03:26:20;20.15;;;10.23;;
41293;SDS011;27037;52.010;4.446;2023-03-03T03:28:48;21.92;;;9.63;;
41293;SDS011;27037;52.010;4.446;2023-03-03T03:31:15;18.77;;;9.60;;
41293;SDS011;27037;52.010;4.446;2023-03-03T03:33:42;19.52;;;9.60;;
41293;SDS011;27037;52.010;4.446;2023-03-03T03:36:07;21.17;;;9.88;;
41293;SDS011;27037;52.010;4.446;2023-03-03T03:38:34;21.33;;;9.60;;
41293;SDS011;27037;52.010;4.446;2023-03-03T03:41:00;19.58;;;10.00;;
41293;SDS011;27037;52.010;4.446;2023-03-03T03:43:26;18.52;;;9.15;;
41293;SDS011;27037;52.010;4.446;2023-03-03T03:45:52;16.27;;;9.55;;
41293;SDS011;27037;52.010;4.446;2023-03-03T03:48:18;22.15;;;11.73;;
41293;SDS011;27037;52.010;4.446;2023-03-03T03:50:44;27.15;;;13.50;;
41293;SDS011;27037;52.010;4.446;2023-03-03T03:53:13;29.15;;;13.57;;
41293;SDS011;27037;52.010;4.446;2023-03-03T03:55:39;32.13;;;14.32;;
41293;SDS011;27037;52.010;4.446;2023-03-03T03:58:04;30.35;;;14.18;;
41293;SDS011;27037;52.010;4.446;2023-03-03T04:00:30;35.33;;;14.45;;
41293;SDS011;27037;52.010;4.446;2023-03-03T04:02:56;43.08;;;15.90;;
41293;SDS011;27037;52.010;4.446;2023-03-03T04:05:22;37.58;;;14.73;;
41293;SDS011;27037;52.010;4.446;2023-03-03T04:07:47;35.03;;;15.52;;
41293;SDS011;27037;52.010;4.446;2023-03-03T04:10:13;52.80;;;16.58;;
41293;SDS011;27037;52.010;4.446;2023-03-03T04:12:38;42.30;;;15.48;;
41293;SDS011;27037;52.010;4.446;2023-03-03T04:15:08;35.85;;;15.57;;
41293;SDS011;27037;52.010;4.446;2023-03-03T04:17:35;43.83;;;15.75;;
41293;SDS011;27037;52.010;4.446;2023-03-03T04:20:02;31.92;;;16.45;;
41293;SDS011;27037;52.010;4.446;2023-03-03T04:22:28;35.85;;;17.90;;
41293;SDS011;27037;52.010;4.446;2023-03-03T04:24:58;44.15;;;17.63;;
41293;SDS011;27037;52.010;4.446;2023-03-03T04:27:24;45.58;;;17.52;;
41293;SDS011;27037;52.010;4.446;2023-03-03T04:29:50;36.92;;;17.30;;
41293;SDS011;27037;52.010;4.446;2023-03-03T04:32:15;41.67;;;18.17;;
41293;SDS011;27037;52.010;4.446;2023-03-03T04:34:42;37.42;;;17.42;;
41293;SDS011;27037;52.010;4.446;2023-03-03T04:37:08;42.70;;;18.08;;
41293;SDS011;27037;52.010;4.446;2023-03-03T04:39:34;40.67;;;17.83;;
41293;SDS011;27037;52.010;4.446;2023-03-03T04:42:00;36.58;;;17.33;;
41293;SDS011;27037;52.010;4.446;2023-03-03T04:44:25;30.38;;;16.00;;
41293;SDS011;27037;52.010;4.446;2023-03-03T04:46:51;38.55;;;16.15;;
41293;SDS011;27037;52.010;4.446;2023-03-03T04:49:16;35.17;;;16.02;;
41293;SDS011;27037;52.010;4.446;2023-03-03T04:51:42;31.67;;;15.35;;
41293;SDS011;27037;52.010;4.446;2023-03-03T04:54:08;31.60;;;15.93;;
41293;SDS011;27037;52.010;4.446;2023-03-03T04:56:33;35.05;;;15.80;;
41293;SDS011;27037;52.010;4.446;2023-03-03T04:58:59;29.60;;;14.90;;
41293;SDS011;27037;52.010;4.446;2023-03-03T05:01:25;29.38;;;15.32;;
41293;SDS011;27037;52.010;4.446;2023-03-03T05:03:51;31.98;;;16.00;;
41293;SDS011;27037;52.010;4.446;2023-03-03T05:06:16;36.72;;;14.82;;
41293;SDS011;27037;52.010;4.446;2023-03-03T05:08:43;32.55;;;14.88;;
41293;SDS011;27037;52.010;4.446;2023-03-03T05:11:09;32.88;;;16.10;;
41293;SDS011;27037;52.010;4.446;2023-03-03T05:13:35;35.97;;;16.77;;
41293;SDS011;27037;52.010;4.446;2023-03-03T05:16:01;36.88;;;16.27;;
41293;SDS011;27037;52.010;4.446;2023-03-03T05:18:26;45.58;;;15.52;;
41293;SDS011;27037;52.010;4.446;2023-03-03T05:20:53;36.20;;;15.27;;
41293;SDS011;27037;52.010;4.446;2023-03-03T05:23:19;43.17;;;15.68;;
41293;SDS011;27037;52.010;4.446;2023-03-03T05:25:48;29.90;;;15.20;;
41293;SDS011;27037;52.010;4.446;2023-03-03T05:28:14;34.08;;;15.80;;
41293;SDS011;27037;52.010;4.446;2023-03-03T05:30:40;36.00;;;16.05;;
41293;SDS011;27037;52.010;4.446;2023-03-03T05:33:06;36.22;;;16.55;;
41293;SDS011;27037;52.010;4.446;2023-03-03T05:35:31;34.25;;;16.25;;
41293;SDS011;27037;52.010;4.446;2023-03-03T05:37:57;34.00;;;16.92;;
41293;SDS011;27037;52.010;4.446;2023-03-03T05:40:24;32.08;;;16.65;;
41293;SDS011;27037;52.010;4.446;2023-03-03T05:42:50;28.48;;;15.60;;
41293;SDS011;27037;52.010;4.446;2023-03-03T05:45:16;36.95;;;16.02;;
41293;SDS011;27037;52.010;4.446;2023-03-03T05:47:45;34.70;;;17.65;;
41293;SDS011;27037;52.010;4.446;2023-03-03T05:50:11;36.90;;;17.58;;
41293;SDS011;27037;52.010;4.446;2023-03-03T05:52:37;34.78;;;17.58;;
41293;SDS011;27037;52.010;4.446;2023-03-03T05:55:03;38.58;;;17.98;;
41293;SDS011;27037;52.010;4.446;2023-03-03T05:57:29;39.42;;;18.20;;
41293;SDS011;27037;52.010;4.446;2023-03-03T05:59:55;38.83;;;18.25;;
41293;SDS011;27037;52.010;4.446;2023-03-03T06:02:21;43.28;;;18.38;;
41293;SDS011;27037;52.010;4.446;2023-03-03T06:04:47;40.38;;;19.80;;
41293;SDS011;27037;52.010;4.446;2023-03-03T06:07:12;41.75;;;18.90;;
41293;SDS011;27037;52.010;4.446;2023-03-03T06:09:38;36.75;;;17.92;;
41293;SDS011;27037;52.010;4.446;2023-03-03T06:12:04;39.83;;;18.45;;
41293;SDS011;27037;52.010;4.446;2023-03-03T06:14:30;38.58;;;18.50;;
41293;SDS011;27037;52.010;4.446;2023-03-03T06:16:55;38.63;;;18.48;;
41293;SDS011;27037;52.010;4.446;2023-03-03T06:19:22;40.85;;;19.75;;
41293;SDS011;27037;52.010;4.446;2023-03-03T06:21:48;42.05;;;18.60;;
41293;SDS011;27037;52.010;4.446;2023-03-03T06:24:13;38.88;;;18.48;;
41293;SDS011;27037;52.010;4.446;2023-03-03T06:26:39;37.28;;;18.98;;
41293;SDS011;27037;52.010;4.446;2023-03-03T06:29:05;41.25;;;19.85;;
41293;SDS011;27037;52.010;4.446;2023-03-03T06:31:31;42.40;;;19.02;;
41293;SDS011;27037;52.010;4.446;2023-03-03T06:33:57;39.95;;;19.30;;
41293;SDS011;27037;52.010;4.446;2023-03-03T06:36:22;39.53;;;19.02;;
41293;SDS011;27037;52.010;4.446;2023-03-03T06:38:49;40.90;;;18.17;;
41293;SDS011;27037;52.010;4.446;2023-03-03T06:41:15;39.53;;;20.02;;
41293;SDS011;27037;52.010;4.446;2023-03-03T06:43:41;34.03;;;18.77;;
41293;SDS011;27037;52.010;4.446;2023-03-03T06:46:06;38.92;;;19.05;;
41293;SDS011;27037;52.010;4.446;2023-03-03T06:48:32;38.03;;;18.75;;
41293;SDS011;27037;52.010;4.446;2023-03-03T06:51:02;34.97;;;19.13;;
41293;SDS011;27037;52.010;4.446;2023-03-03T06:53:47;42.15;;;19.83;;
41293;SDS011;27037;52.010;4.446;2023-03-03T06:56:16;46.17;;;19.77;;
41293;SDS011;27037;52.010;4.446;2023-03-03T06:58:42;42.13;;;19.60;;
41293;SDS011;27037;52.010;4.446;2023-03-03T07:01:12;39.35;;;19.55;;
41293;SDS011;27037;52.010;4.446;2023-03-03T07:03:40;43.15;;;20.92;;
41293;SDS011;27037;52.010;4.446;2023-03-03T07:06:19;36.40;;;19.05;;
41293;SDS011;27037;52.010;4.446;2023-03-03T07:08:46;38.95;;;20.15;;
41293;SDS011;27037;52.010;4.446;2023-03-03T07:11:13;40.42;;;19.40;;
41293;SDS011;27037;52.010;4.446;2023-03-03T07:13:43;39.47;;;18.63;;
41293;SDS011;27037;52.010;4.446;2023-03-03T07:16:19;39.53;;;18.45;;
41293;SDS011;27037;52.010;4.446;2023-03-03T07:18:51;43.03;;;18.85;;
41293;SDS011;27037;52.010;4.446;2023-03-03T07:21:34;39.95;;;18.98;;
41293;SDS011;27037;52.010;4.446;2023-03-03T07:26:46;41.85;;;19.70;;
41293;SDS011;27037;52.010;4.446;2023-03-03T07:31:46;41.70;;;19.30;;
41293;SDS011;27037;52.010;4.446;2023-03-03T07:36:44;44.40;;;19.92;;
41293;SDS011;27037;52.010;4.446;2023-03-03T07:39:16;39.45;;;18.98;;
41293;SDS011;27037;52.010;4.446;2023-03-03T07:41:49;43.33;;;19.38;;
41293;SDS011;27037;52.010;4.446;2023-03-03T07:44:24;44.60;;;19.23;;
41293;SDS011;27037;52.010;4.446;2023-03-03T07:47:11;41.63;;;19.17;;
41293;SDS011;27037;52.010;4.446;2023-03-03T07:49:43;39.40;;;18.75;;
41293;SDS011;27037;52.010;4.446;2023-03-03T07:52:17;39.10;;;18.95;;
41293;SDS011;27037;52.010;4.446;2023-03-03T07:57:51;38.42;;;19.00;;
41293;SDS011;27037;52.010;4.446;2023-03-03T08:02:59;35.08;;;18.85;;
41293;SDS011;27037;52.010;4.446;2023-03-03T08:05:30;37.08;;;18.88;;
41293;SDS011;27037;52.010;4.446;2023-03-03T08:08:11;39.25;;;18.30;;
41293;SDS011;27037;52.010;4.446;2023-03-03T08:13:15;39.50;;;17.40;;
41293;SDS011;27037;52.010;4.446;2023-03-03T08:15:47;34.00;;;17.50;;
41293;SDS011;27037;52.010;4.446;2023-03-03T08:18:29;36.10;;;18.10;;
41293;SDS011;27037;52.010;4.446;2023-03-03T08:23:37;33.63;;;17.55;;
41293;SDS011;27037;52.010;4.446;2023-03-03T08:26:03;32.10;;;17.17;;
41293;SDS011;27037;52.010;4.446;2023-03-03T08:28:29;31.40;;;17.05;;
41293;SDS011;27037;52.010;4.446;2023-03-03T08:30:55;35.67;;;18.50;;
41293;SDS011;27037;52.010;4.446;2023-03-03T08:33:21;31.10;;;17.73;;
41293;SDS011;27037;52.010;4.446;2023-03-03T08:35:47;29.08;;;16.05;;
41293;SDS011;27037;52.010;4.446;2023-03-03T08:38:14;36.75;;;17.52;;
41293;SDS011;27037;52.010;4.446;2023-03-03T08:40:42;29.13;;;15.98;;
41293;SDS011;27037;52.010;4.446;2023-03-03T08:43:08;27.10;;;14.30;;
41293;SDS011;27037;52.010;4.446;2023-03-03T08:45:34;26.77;;;14.77;;
41293;SDS011;27037;52.010;4.446;2023-03-03T08:48:00;24.75;;;14.98;;
41293;SDS011;27037;52.010;4.446;2023-03-03T08:50:27;30.85;;;15.85;;
41293;SDS011;27037;52.010;4.446;2023-03-03T08:52:53;26.67;;;16.27;;
41293;SDS011;27037;52.010;4.446;2023-03-03T08:55:19;25.50;;;14.45;;
41293;SDS011;27037;52.010;4.446;2023-03-03T08:57:44;23.65;;;13.88;;
41293;SDS011;27037;52.010;4.446;2023-03-03T09:00:11;24.67;;;13.30;;
41293;SDS011;27037;52.010;4.446;2023-03-03T09:02:39;21.58;;;12.98;;
41293;SDS011;27037;52.010;4.446;2023-03-03T09:05:05;20.92;;;11.45;;
41293;SDS011;27037;52.010;4.446;2023-03-03T09:07:31;21.35;;;11.38;;
41293;SDS011;27037;52.010;4.446;2023-03-03T09:09:57;18.88;;;11.23;;
41293;SDS011;27037;52.010;4.446;2023-03-03T09:12:33;17.30;;;10.45;;
41293;SDS011;27037;52.010;4.446;2023-03-03T09:15:10;18.42;;;9.57;;
41293;SDS011;27037;52.010;4.446;2023-03-03T09:17:52;15.82;;;9.85;;
41293;SDS011;27037;52.010;4.446;2023-03-03T09:20:30;14.43;;;9.88;;
41293;SDS011;27037;52.010;4.446;2023-03-03T09:25:51;15.50;;;9.38;;
41293;SDS011;27037;52.010;4.446;2023-03-03T09:28:27;19.40;;;10.02;;
41293;SDS011;27037;52.010;4.446;2023-03-03T09:30:59;13.15;;;9.00;;
41293;SDS011;27037;52.010;4.446;2023-03-03T09:38:31;17.55;;;9.07;;
41293;SDS011;27037;52.010;4.446;2023-03-03T09:57:04;12.05;;;6.07;;
41293;SDS011;27037;52.010;4.446;2023-03-03T10:02:48;10.40;;;5.90;;
41293;SDS011;27037;52.010;4.446;2023-03-03T10:07:59;11.00;;;5.70;;
41293;SDS011;27037;52.010;4.446;2023-03-03T10:18:40;8.15;;;4.30;;
41293;SDS011;27037;52.010;4.446;2023-03-03T10:21:19;7.45;;;4.10;;
41293;SDS011;27037;52.010;4.446;2023-03-03T10:23:54;7.03;;;4.00;;
41293;SDS011;27037;52.010;4.446;2023-03-03T10:27:26;8.73;;;3.97;;
41293;SDS011;27037;52.010;4.446;2023-03-03T10:32:34;6.38;;;3.55;;
41293;SDS011;27037;52.010;4.446;2023-03-03T11:02:48;8.80;;;2.60;;
41293;SDS011;27037;52.010;4.446;2023-03-03T11:14:30;6.95;;;2.75;;
41293;SDS011;27037;52.010;4.446;2023-03-03T11:26:16;4.18;;;2.40;;
41293;SDS011;27037;52.010;4.446;2023-03-03T11:37:00;5.88;;;2.92;;
41293;SDS011;27037;52.010;4.446;2023-03-03T11:42:06;4.47;;;2.65;;
41293;SDS011;27037;52.010;4.446;2023-03-03T11:45:05;6.80;;;3.15;;
41293;SDS011;27037;52.010;4.446;2023-03-03T11:47:49;8.85;;;3.83;;
41293;SDS011;27037;52.010;4.446;2023-03-03T11:50:44;21.20;;;4.15;;
41293;SDS011;27037;52.010;4.446;2023-03-03T11:56:05;8.73;;;3.90;;
41293;SDS011;27037;52.010;4.446;2023-03-03T11:58:52;7.63;;;4.05;;
41293;SDS011;27037;52.010;4.446;2023-03-03T12:01:29;8.90;;;4.10;;
41293;SDS011;27037;52.010;4.446;2023-03-03T12:04:04;8.23;;;3.83;;
41293;SDS011;27037;52.010;4.446;2023-03-03T12:17:58;7.57;;;2.30;;
41293;SDS011;27037;52.010;4.446;2023-03-03T12:20:48;4.70;;;2.25;;
41293;SDS011;27037;52.010;4.446;2023-03-03T12:31:54;7.20;;;2.10;;
41293;SDS011;27037;52.010;4.446;2023-03-03T12:35:05;4.70;;;2.05;;
41293;SDS011;27037;52.010;4.446;2023-03-03T12:40:31;5.75;;;2.00;;
41293;SDS011;27037;52.010;4.446;2023-03-03T12:43:21;5.15;;;2.17;;
41293;SDS011;27037;52.010;4.446;2023-03-03T12:48:43;7.18;;;1.95;;
41293;SDS011;27037;52.010;4.446;2023-03-03T12:56:52;4.28;;;1.60;;
41293;SDS011;27037;52.010;4.446;2023-03-03T13:05:01;8.20;;;1.80;;
41293;SDS011;27037;52.010;4.446;2023-03-03T13:07:55;4.25;;;1.58;;
41293;SDS011;27037;52.010;4.446;2023-03-03T13:10:51;7.93;;;1.60;;
41293;SDS011;27037;52.010;4.446;2023-03-03T13:16:51;5.72;;;1.60;;
41293;SDS011;27037;52.010;4.446;2023-03-03T13:19:31;5.75;;;1.60;;
41293;SDS011;27037;52.010;4.446;2023-03-03T13:27:46;4.60;;;1.60;;
41293;SDS011;27037;52.010;4.446;2023-03-03T13:30:23;6.25;;;1.58;;
41293;SDS011;27037;52.010;4.446;2023-03-03T13:35:49;3.28;;;1.50;;
41293;SDS011;27037;52.010;4.446;2023-03-03T13:43:29;3.67;;;1.80;;
41293;SDS011;27037;52.010;4.446;2023-03-03T13:46:47;6.97;;;1.60;;
41293;SDS011;27037;52.010;4.446;2023-03-03T13:49:23;6.65;;;2.10;;
41293;SDS011;27037;52.010;4.446;2023-03-03T13:52:06;5.40;;;1.80;;
41293;SDS011;27037;52.010;4.446;2023-03-03T13:54:42;4.63;;;1.85;;
41293;SDS011;27037;52.010;4.446;2023-03-03T14:13:28;9.10;;;2.03;;
41293;SDS011;27037;52.010;4.446;2023-03-03T14:16:03;3.58;;;1.92;;
41293;SDS011;27037;52.010;4.446;2023-03-03T14:21:45;6.75;;;2.33;;
41293;SDS011;27037;52.010;4.446;2023-03-03T14:24:21;3.95;;;2.20;;
41293;SDS011;27037;52.010;4.446;2023-03-03T14:26:51;4.85;;;2.30;;
41293;SDS011;27037;52.010;4.446;2023-03-03T14:31:53;6.40;;;2.33;;
41293;SDS011;27037;52.010;4.446;2023-03-03T14:36:58;6.30;;;2.30;;
41293;SDS011;27037;52.010;4.446;2023-03-03T14:39:42;7.78;;;2.63;;
41293;SDS011;27037;52.010;4.446;2023-03-03T14:42:12;7.38;;;2.47;;
41293;SDS011;27037;52.010;4.446;2023-03-03T14:44:54;4.45;;;2.28;;
41293;SDS011;27037;52.010;4.446;2023-03-03T14:47:21;5.72;;;2.78;;
41293;SDS011;27037;52.010;4.446;2023-03-03T14:49:48;6.38;;;2.67;;
41293;SDS011;27037;52.010;4.446;2023-03-03T14:54:42;6.93;;;3.35;;
41293;SDS011;27037;52.010;4.446;2023-03-03T15:07:36;7.28;;;3.00;;
41293;SDS011;27037;52.010;4.446;2023-03-03T15:10:04;8.07;;;2.90;;
41293;SDS011;27037;52.010;4.446;2023-03-03T15:17:32;6.70;;;2.60;;
41293;SDS011;27037;52.010;4.446;2023-03-03T15:25:32;4.60;;;2.30;;
41293;SDS011;27037;52.010;4.446;2023-03-03T15:33:44;7.07;;;2.10;;
41293;SDS011;27037;52.010;4.446;2023-03-03T15:36:43;8.65;;;2.92;;
41293;SDS011;27037;52.010;4.446;2023-03-03T15:44:31;7.40;;;2.85;;
41293;SDS011;27037;52.010;4.446;2023-03-03T15:47:41;9.23;;;2.88;;
41293;SDS011;27037;52.010;4.446;2023-03-03T16:03:41;6.82;;;2.78;;
41293;SDS011;27037;52.010;4.446;2023-03-03T16:06:15;5.60;;;2.53;;
41293;SDS011;27037;52.010;4.446;2023-03-03T16:19:51;7.05;;;3.30;;
41293;SDS011;27037;52.010;4.446;2023-03-03T16:25:49;9.00;;;2.30;;
41293;SDS011;27037;52.010;4.446;2023-03-03T16:39:04;10.68;;;2.83;;
41293;SDS011;27037;52.010;4.446;2023-03-03T16:41:43;9.48;;;2.55;;
41293;SDS011;27037;52.010;4.446;2023-03-03T16:44:24;7.63;;;1.83;;
41293;SDS011;27037;52.010;4.446;2023-03-03T16:49:47;6.20;;;1.88;;
41293;SDS011;27037;52.010;4.446;2023-03-03T16:52:34;10.27;;;2.13;;
41293;SDS011;27037;52.010;4.446;2023-03-03T16:55:19;8.80;;;2.08;;
41293;SDS011;27037;52.010;4.446;2023-03-03T16:57:58;10.35;;;1.88;;
41293;SDS011;27037;52.010;4.446;2023-03-03T17:00:29;8.38;;;1.83;;
41293;SDS011;27037;52.010;4.446;2023-03-03T17:11:18;14.82;;;2.50;;
41293;SDS011;27037;52.010;4.446;2023-03-03T17:14:05;10.25;;;2.00;;
41293;SDS011;27037;52.010;4.446;2023-03-03T17:16:41;12.73;;;2.35;;
41293;SDS011;27037;52.010;4.446;2023-03-03T17:27:53;9.10;;;1.90;;
41293;SDS011;27037;52.010;4.446;2023-03-03T17:30:36;9.70;;;1.90;;
41293;SDS011;27037;52.010;4.446;2023-03-03T17:38:19;9.70;;;2.00;;
41293;SDS011;27037;52.010;4.446;2023-03-03T17:41:02;10.98;;;2.13;;
41293;SDS011;27037;52.010;4.446;2023-03-03T17:46:15;13.60;;;2.58;;
41293;SDS011;27037;52.010;4.446;2023-03-03T17:51:56;14.40;;;2.42;;
41293;SDS011;27037;52.010;4.446;2023-03-03T18:16:42;18.42;;;2.58;;
41293;SDS011;27037;52.010;4.446;2023-03-03T18:22:32;18.02;;;2.88;;
41293;SDS011;27037;52.010;4.446;2023-03-03T18:25:23;14.20;;;2.55;;
41293;SDS011;27037;52.010;4.446;2023-03-03T18:30:28;14.70;;;3.13;;
41293;SDS011;27037;52.010;4.446;2023-03-03T18:33:13;16.65;;;2.53;;
41293;SDS011;27037;52.010;4.446;2023-03-03T18:35:43;16.65;;;3.10;;
41293;SDS011;27037;52.010;4.446;2023-03-03T18:49:04;9.60;;;2.33;;
41293;SDS011;27037;52.010;4.446;2023-03-03T19:04:41;19.45;;;3.58;;
41293;SDS011;27037;52.010;4.446;2023-03-03T19:20:42;27.35;;;4.05;;
41293;SDS011;27037;52.010;4.446;2023-03-03T19:23:30;15.55;;;2.88;;
41293;SDS011;27037;52.010;4.446;2023-03-03T19:32:03;21.60;;;3.20;;
41293;SDS011;27037;52.010;4.446;2023-03-03T19:39:59;20.42;;;3.25;;
41293;SDS011;27037;52.010;4.446;2023-03-03T19:45:18;20.10;;;2.93;;
41293;SDS011;27037;52.010;4.446;2023-03-03T20:17:40;16.77;;;2.88;;
41293;SDS011;27037;52.010;4.446;2023-03-03T20:37:08;17.90;;;3.08;;
41293;SDS011;27037;52.010;4.446;2023-03-03T20:48:18;21.08;;;3.30;;
41293;SDS011;27037;52.010;4.446;2023-03-03T20:51:04;30.90;;;3.58;;
41293;SDS011;27037;52.010;4.446;2023-03-03T20:56:27;22.10;;;3.05;;
41293;SDS011;27037;52.010;4.446;2023-03-03T21:01:49;25.10;;;3.17;;
41293;SDS011;27037;52.010;4.446;2023-03-03T21:06:43;24.92;;;4.15;;
41293;SDS011;27037;52.010;4.446;2023-03-03T21:09:26;21.10;;;4.53;;
41293;SDS011;27037;52.010;4.446;2023-03-03T21:12:01;23.45;;;4.35;;
41293;SDS011;27037;52.010;4.446;2023-03-03T21:14:36;26.42;;;4.22;;
41293;SDS011;27037;52.010;4.446;2023-03-03T21:17:10;27.60;;;4.78;;
41293;SDS011;27037;52.010;4.446;2023-03-03T21:19:51;25.60;;;3.58;;
41293;SDS011;27037;52.010;4.446;2023-03-03T21:22:17;28.48;;;3.95;;
41293;SDS011;27037;52.010;4.446;2023-03-03T21:24:50;17.42;;;3.65;;
41293;SDS011;27037;52.010;4.446;2023-03-03T21:27:33;17.65;;;3.85;;
41293;SDS011;27037;52.010;4.446;2023-03-03T21:32:36;21.10;;;4.50;;
41293;SDS011;27037;52.010;4.446;2023-03-03T21:35:07;18.95;;;4.28;;
41293;SDS011;27037;52.010;4.446;2023-03-03T21:37:41;21.35;;;4.28;;
41293;SDS011;27037;52.010;4.446;2023-03-03T21:42:49;20.65;;;4.28;;
41293;SDS011;27037;52.010;4.446;2023-03-03T21:45:15;22.25;;;3.42;;
41293;SDS011;27037;52.010;4.446;2023-03-03T21:47:44;29.20;;;3.20;;
41293;SDS011;27037;52.010;4.446;2023-03-03T21:50:10;18.92;;;3.03;;
41293;SDS011;27037;52.010;4.446;2023-03-03T21:52:36;26.73;;;3.67;;
41293;SDS011;27037;52.010;4.446;2023-03-03T21:55:02;25.98;;;3.33;;
41293;SDS011;27037;52.010;4.446;2023-03-03T21:57:27;25.35;;;3.10;;
41293;SDS011;27037;52.010;4.446;2023-03-03T21:59:53;19.50;;;3.58;;
41293;SDS011;27037;52.010;4.446;2023-03-03T22:02:19;28.80;;;3.67;;
41293;SDS011;27037;52.010;4.446;2023-03-03T22:04:44;24.67;;;3.90;;
41293;SDS011;27037;52.010;4.446;2023-03-03T22:07:10;22.35;;;3.55;;
41293;SDS011;27037;52.010;4.446;2023-03-03T22:09:36;20.48;;;4.35;;
41293;SDS011;27037;52.010;4.446;2023-03-03T22:12:02;23.38;;;3.60;;
41293;SDS011;27037;52.010;4.446;2023-03-03T22:14:32;25.25;;;3.50;;
41293;SDS011;27037;52.010;4.446;2023-03-03T22:17:00;22.13;;;3.50;;
41293;SDS011;27037;52.010;4.446;2023-03-03T22:19:25;21.58;;;3.15;;
41293;SDS011;27037;52.010;4.446;2023-03-03T22:21:54;18.67;;;3.70;;
41293;SDS011;27037;52.010;4.446;2023-03-03T22:24:20;20.20;;;2.85;;
41293;SDS011;27037;52.010;4.446;2023-03-03T22:26:45;20.38;;;3.58;;
41293;SDS011;27037;52.010;4.446;2023-03-03T22:29:11;22.75;;;3.63;;
41293;SDS011;27037;52.010;4.446;2023-03-03T22:31:36;14.93;;;3.45;;
41293;SDS011;27037;52.010;4.446;2023-03-03T22:34:02;19.40;;;3.45;;
41293;SDS011;27037;52.010;4.446;2023-03-03T22:36:28;19.02;;;3.53;;
41293;SDS011;27037;52.010;4.446;2023-03-03T22:38:54;24.83;;;3.88;;